Time,TemperatureF,DewpointF,PressureIn,WindDirection,WindDirectionDegrees,WindSpeedMPH,WindSpeedGustMPH,Humidity,HourlyPrecipIn,Conditions,Clouds,dailyrainin,SoftwareType,DateUTC
2013-06-13 00:01:00,61.0,42.0,-100.00,ENE,68,4.0,5.0,50,-99.99,,,-99.99,,2013-06-13 07:01:00,
2013-06-13 00:11:00,61.0,42.0,-100.00,ENE,68,4.0,5.0,50,-99.99,,,-99.99,,2013-06-13 07:11:00,
2013-06-13 00:22:00,61.0,40.0,-100.00,NE,54,3.0,4.0,46,-99.99,,,-99.99,,2013-06-13 07:22:00,
2013-06-13 00:33:00,62.0,43.0,-100.00,ENE,57,3.0,4.0,50,-99.99,,,-99.99,,2013-06-13 07:33:00,
2013-06-13 00:42:00,61.0,38.0,-100.00,ENE,60,3.0,5.0,42,-99.99,,,-99.99,,2013-06-13 07:42:00,
2013-06-13 00:52:00,62.0,36.0,-100.00,ENE,62,3.0,6.0,38,-99.99,,,-99.99,,2013-06-13 07:52:00,
2013-06-13 01:01:00,62.0,35.0,-100.00,ENE,69,4.0,4.0,37,-99.99,,,-99.99,,2013-06-13 08:01:00,
2013-06-13 01:42:00,63.0,35.0,-100.00,NE,54,3.0,4.0,35,-99.99,,,-99.99,,2013-06-13 08:42:00,
2013-06-13 01:52:00,63.0,35.0,-100.00,NE,54,3.0,4.0,35,-99.99,,,-99.99,,2013-06-13 08:52:00,
2013-06-13 02:01:00,64.0,33.0,-100.00,ENE,59,2.0,4.0,31,-99.99,,,-99.99,,2013-06-13 09:01:00,
2013-06-13 02:32:00,61.0,29.0,-100.00,ENE,63,2.0,4.0,29,-99.99,,,-99.99,,2013-06-13 09:32:00,
2013-06-13 02:42:00,62.0,27.0,-100.00,ENE,65,3.0,5.0,26,-99.99,,,-99.99,,2013-06-13 09:42:00,
2013-06-13 02:52:00,62.0,27.0,-100.00,ENE,65,3.0,5.0,26,-99.99,,,-99.99,,2013-06-13 09:52:00,
2013-06-13 03:01:00,60.0,26.0,-100.00,ENE,65,3.0,5.0,27,-99.99,,,-99.99,,2013-06-13 10:01:00,
2013-06-13 03:42:00,62.0,32.0,-100.00,NW,312,2.0,2.0,32,-99.99,,,-99.99,,2013-06-13 10:42:00,
2013-06-13 03:53:00,61.0,33.0,-100.00,WSW,248,1.0,0.0,35,-99.99,,,-99.99,,2013-06-13 10:53:00,
2013-06-13 04:01:00,61.0,35.0,-100.00,NE,46,0.0,2.0,38,-99.99,,,-99.99,,2013-06-13 11:01:00,
2013-06-13 04:32:00,62.0,31.0,-100.00,NNE,26,1.0,3.0,31,-99.99,,,-99.99,,2013-06-13 11:32:00,
2013-06-13 04:42:00,61.0,32.0,-100.00,ENE,57,2.0,3.0,33,-99.99,,,-99.99,,2013-06-13 11:42:00,
2013-06-13 04:52:00,60.0,29.0,-100.00,ENE,68,2.0,5.0,31,-99.99,,,-99.99,,2013-06-13 11:52:00,
2013-06-13 05:01:00,60.0,26.0,-100.00,ENE,60,3.0,4.0,27,-99.99,,,-99.99,,2013-06-13 12:01:00,
2013-06-13 05:34:00,61.0,27.0,-100.00,ENE,58,2.0,3.0,27,-99.99,,,-99.99,,2013-06-13 12:34:00,
2013-06-13 06:01:00,61.0,25.0,-100.00,ENE,61,4.0,6.0,25,-99.99,,,-99.99,,2013-06-13 13:01:00,
2013-06-13 06:43:00,63.0,29.0,-100.00,NE,50,2.0,4.0,27,-99.99,,,-99.99,,2013-06-13 13:43:00,
2013-06-13 06:53:00,63.0,29.0,-100.00,NE,50,2.0,4.0,27,-99.99,,,-99.99,,2013-06-13 13:53:00,
2013-06-13 07:01:00,64.0,29.0,-100.00,NE,40,3.0,3.0,27,-99.99,,,-99.99,,2013-06-13 14:01:00,
2013-06-13 07:11:00,64.0,29.0,-100.00,NE,40,3.0,3.0,27,-99.99,,,-99.99,,2013-06-13 14:11:00,
2013-06-13 07:22:00,66.0,30.0,-100.00,NE,40,2.0,3.0,26,-99.99,,,-99.99,,2013-06-13 14:22:00,
2013-06-13 08:01:00,72.0,32.0,-100.00,ESE,121,0.0,2.0,23,-99.99,,,-99.99,,2013-06-13 15:01:00,
2013-06-13 08:11:00,70.0,33.0,-100.00,SW,216,2.0,3.0,25,-99.99,,,-99.99,,2013-06-13 15:11:00,
2013-06-13 08:21:00,71.0,33.0,-100.00,SSW,210,2.0,3.0,25,-99.99,,,-99.99,,2013-06-13 15:21:00,
2013-06-13 08:33:00,71.0,33.0,-100.00,SSW,210,2.0,3.0,25,-99.99,,,-99.99,,2013-06-13 15:33:00,
2013-06-13 08:43:00,72.0,33.0,-100.00,SSW,209,2.0,3.0,24,-99.99,,,-99.99,,2013-06-13 15:43:00,
2013-06-13 09:01:00,72.0,34.0,-100.00,SW,226,3.0,6.0,25,-99.99,,,-99.99,,2013-06-13 16:01:00,
2013-06-13 09:11:00,69.0,41.0,-100.00,SW,231,4.0,8.0,36,-99.99,,,-99.99,,2013-06-13 16:11:00,
2013-06-13 09:22:00,71.0,39.0,-100.00,SW,236,5.0,8.0,31,-99.99,,,-99.99,,2013-06-13 16:22:00,
2013-06-13 09:33:00,71.0,39.0,-100.00,SW,236,5.0,8.0,31,-99.99,,,-99.99,,2013-06-13 16:33:00,
2013-06-13 09:43:00,72.0,40.0,-100.00,WSW,248,5.0,8.0,31,-99.99,,,-99.99,,2013-06-13 16:43:00,
2013-06-13 09:53:00,72.0,40.0,-100.00,WSW,248,5.0,8.0,31,-99.99,,,-99.99,,2013-06-13 16:53:00,
2013-06-13 10:02:00,72.0,41.0,-100.00,WSW,249,5.0,11.0,33,-99.99,,,-99.99,,2013-06-13 17:02:00,
2013-06-13 10:11:00,72.0,41.0,-100.00,WSW,249,5.0,11.0,33,-99.99,,,-99.99,,2013-06-13 17:11:00,
2013-06-13 10:24:00,72.0,44.0,-100.00,WSW,249,6.0,9.0,36,-99.99,,,-99.99,,2013-06-13 17:24:00,
2013-06-13 10:32:00,72.0,44.0,-100.00,WSW,250,5.0,9.0,37,-99.99,,,-99.99,,2013-06-13 17:32:00,
2013-06-13 10:43:00,72.0,48.0,-100.00,WSW,247,7.0,11.0,42,-99.99,,,-99.99,,2013-06-13 17:43:00,
2013-06-13 10:53:00,72.0,48.0,-100.00,WSW,247,7.0,11.0,42,-99.99,,,-99.99,,2013-06-13 17:53:00,
2013-06-13 11:02:00,71.0,47.0,-100.00,WSW,245,7.0,11.0,42,-99.99,,,-99.99,,2013-06-13 18:02:00,
2013-06-13 11:11:00,73.0,48.0,-100.00,WSW,251,8.0,11.0,41,-99.99,,,-99.99,,2013-06-13 18:11:00,
2013-06-13 11:22:00,73.0,47.0,-100.00,WSW,248,6.0,10.0,40,-99.99,,,-99.99,,2013-06-13 18:22:00,
2013-06-13 11:33:00,74.0,47.0,-100.00,WSW,247,6.0,12.0,39,-99.99,,,-99.99,,2013-06-13 18:33:00,
2013-06-13 11:43:00,74.0,47.0,-100.00,WSW,245,7.0,11.0,38,-99.99,,,-99.99,,2013-06-13 18:43:00,
2013-06-13 11:52:00,74.0,47.0,-100.00,WSW,245,7.0,11.0,38,-99.99,,,-99.99,,2013-06-13 18:52:00,
2013-06-13 12:01:00,74.0,47.0,-100.00,WSW,252,7.0,11.0,38,-99.99,,,-99.99,,2013-06-13 19:01:00,
2013-06-13 12:11:00,75.0,48.0,-100.00,WSW,249,7.0,12.0,38,-99.99,,,-99.99,,2013-06-13 19:11:00,
2013-06-13 12:22:00,75.0,48.0,-100.00,WSW,246,9.0,14.0,38,-99.99,,,-99.99,,2013-06-13 19:22:00,
2013-06-13 12:32:00,75.0,48.0,-100.00,WSW,246,9.0,14.0,38,-99.99,,,-99.99,,2013-06-13 19:32:00,
2013-06-13 12:43:00,77.0,49.0,-100.00,WSW,252,8.0,14.0,37,-99.99,,,-99.99,,2013-06-13 19:43:00,
2013-06-13 12:53:00,77.0,49.0,-100.00,WSW,252,8.0,14.0,37,-99.99,,,-99.99,,2013-06-13 19:53:00,
2013-06-13 13:01:00,77.0,51.0,-100.00,WSW,257,7.0,15.0,40,-99.99,,,-99.99,,2013-06-13 20:01:00,
2013-06-13 13:11:00,76.0,51.0,-100.00,WSW,252,7.0,12.0,41,-99.99,,,-99.99,,2013-06-13 20:11:00,
2013-06-13 13:22:00,77.0,51.0,-100.00,WSW,258,7.0,13.0,40,-99.99,,,-99.99,,2013-06-13 20:22:00,
2013-06-13 13:32:00,77.0,51.0,-100.00,WSW,257,9.0,17.0,40,-99.99,,,-99.99,,2013-06-13 20:32:00,
2013-06-13 13:43:00,77.0,51.0,-100.00,WSW,254,9.0,17.0,41,-99.99,,,-99.99,,2013-06-13 20:43:00,
2013-06-13 13:53:00,77.0,51.0,-100.00,WSW,254,9.0,17.0,41,-99.99,,,-99.99,,2013-06-13 20:53:00,
2013-06-13 14:01:00,78.0,52.0,-100.00,West,264,9.0,16.0,40,-99.99,,,-99.99,,2013-06-13 21:01:00,
2013-06-13 14:11:00,78.0,52.0,-100.00,WSW,258,10.0,16.0,41,-99.99,,,-99.99,,2013-06-13 21:11:00,
2013-06-13 14:22:00,78.0,52.0,-100.00,WSW,258,10.0,16.0,41,-99.99,,,-99.99,,2013-06-13 21:22:00,
2013-06-13 14:34:00,78.0,52.0,-100.00,WSW,256,9.0,16.0,40,-99.99,,,-99.99,,2013-06-13 21:34:00,
2013-06-13 14:43:00,78.0,52.0,-100.00,WSW,258,9.0,15.0,41,-99.99,,,-99.99,,2013-06-13 21:43:00,
2013-06-13 14:52:00,78.0,52.0,-100.00,WSW,257,8.0,16.0,41,-99.99,,,-99.99,,2013-06-13 21:52:00,
2013-06-13 15:01:00,77.0,53.0,-100.00,WSW,255,9.0,17.0,43,-99.99,,,-99.99,,2013-06-13 22:01:00,
2013-06-13 15:11:00,77.0,53.0,-100.00,WSW,255,9.0,17.0,43,-99.99,,,-99.99,,2013-06-13 22:11:00,
2013-06-13 15:22:00,76.0,52.0,-100.00,WSW,257,9.0,15.0,44,-99.99,,,-99.99,,2013-06-13 22:22:00,
2013-06-13 15:32:00,76.0,52.0,-100.00,West,261,9.0,15.0,44,-99.99,,,-99.99,,2013-06-13 22:32:00,
2013-06-13 15:42:00,77.0,53.0,-100.00,West,274,8.0,14.0,43,-99.99,,,-99.99,,2013-06-13 22:42:00,
2013-06-13 15:52:00,77.0,53.0,-100.00,West,274,8.0,14.0,43,-99.99,,,-99.99,,2013-06-13 22:52:00,
2013-06-13 16:01:00,77.0,52.0,-100.00,West,259,8.0,15.0,42,-99.99,,,-99.99,,2013-06-13 23:01:00,
2013-06-13 16:11:00,77.0,53.0,-100.00,WSW,257,7.0,13.0,43,-99.99,,,-99.99,,2013-06-13 23:11:00,
2013-06-13 16:22:00,76.0,53.0,-100.00,WSW,253,9.0,16.0,45,-99.99,,,-99.99,,2013-06-13 23:22:00,
2013-06-13 16:32:00,76.0,53.0,-100.00,WSW,253,9.0,16.0,45,-99.99,,,-99.99,,2013-06-13 23:32:00,
2013-06-13 16:43:00,76.0,52.0,-100.00,West,262,8.0,15.0,44,-99.99,,,-99.99,,2013-06-13 23:43:00,
2013-06-13 16:52:00,76.0,52.0,-100.00,West,262,8.0,15.0,44,-99.99,,,-99.99,,2013-06-13 23:52:00,
2013-06-13 17:01:00,75.0,52.0,-100.00,WSW,255,8.0,16.0,45,-99.99,,,-99.99,,2013-06-14 00:01:00,
2013-06-13 17:11:00,75.0,52.0,-100.00,WSW,255,8.0,16.0,45,-99.99,,,-99.99,,2013-06-14 00:11:00,
2013-06-13 17:22:00,75.0,53.0,-100.00,WSW,251,9.0,13.0,46,-99.99,,,-99.99,,2013-06-14 00:22:00,
2013-06-13 17:33:00,74.0,52.0,-100.00,WSW,250,8.0,14.0,47,-99.99,,,-99.99,,2013-06-14 00:33:00,
2013-06-13 17:43:00,74.0,52.0,-100.00,West,266,8.0,12.0,47,-99.99,,,-99.99,,2013-06-14 00:43:00,
2013-06-13 17:53:00,74.0,52.0,-100.00,West,266,8.0,12.0,47,-99.99,,,-99.99,,2013-06-14 00:53:00,
2013-06-13 18:01:00,74.0,52.0,-100.00,West,272,7.0,12.0,47,-99.99,,,-99.99,,2013-06-14 01:01:00,
2013-06-13 18:11:00,74.0,53.0,-100.00,WNW,283,8.0,13.0,48,-99.99,,,-99.99,,2013-06-14 01:11:00,
2013-06-13 18:22:00,74.0,53.0,-100.00,West,276,7.0,11.0,48,-99.99,,,-99.99,,2013-06-14 01:22:00,
2013-06-13 18:32:00,74.0,53.0,-100.00,West,276,7.0,11.0,48,-99.99,,,-99.99,,2013-06-14 01:32:00,
2013-06-13 18:43:00,72.0,53.0,-100.00,West,270,7.0,13.0,51,-99.99,,,-99.99,,2013-06-14 01:43:00,
2013-06-13 18:52:00,72.0,53.0,-100.00,West,270,7.0,13.0,51,-99.99,,,-99.99,,2013-06-14 01:52:00,
2013-06-13 19:01:00,71.0,52.0,-100.00,West,280,6.0,11.0,52,-99.99,,,-99.99,,2013-06-14 02:01:00,
2013-06-13 19:11:00,71.0,52.0,-100.00,West,269,7.0,10.0,52,-99.99,,,-99.99,,2013-06-14 02:11:00,
2013-06-13 19:22:00,70.0,53.0,-100.00,West,266,5.0,8.0,54,-99.99,,,-99.99,,2013-06-14 02:22:00,
2013-06-13 19:32:00,70.0,53.0,-100.00,West,266,5.0,8.0,54,-99.99,,,-99.99,,2013-06-14 02:32:00,
2013-06-13 19:43:00,69.0,53.0,-100.00,West,260,3.0,7.0,57,-99.99,,,-99.99,,2013-06-14 02:43:00,
2013-06-13 19:52:00,68.0,53.0,-100.00,West,265,3.0,7.0,58,-99.99,,,-99.99,,2013-06-14 02:52:00,
2013-06-13 20:02:00,67.0,53.0,-100.00,WSW,242,3.0,4.0,60,-99.99,,,-99.99,,2013-06-14 03:02:00,
2013-06-13 20:11:00,67.0,53.0,-100.00,WSW,242,3.0,4.0,60,-99.99,,,-99.99,,2013-06-14 03:11:00,
2013-06-13 20:22:00,66.0,53.0,-100.00,West,271,2.0,6.0,62,-99.99,,,-99.99,,2013-06-14 03:22:00,
2013-06-13 20:34:00,64.0,52.0,-100.00,WNW,283,3.0,6.0,65,-99.99,,,-99.99,,2013-06-14 03:34:00,
2013-06-13 20:43:00,63.0,52.0,-100.00,North,354,2.0,4.0,67,-99.99,,,-99.99,,2013-06-14 03:43:00,
2013-06-13 20:52:00,63.0,52.0,-100.00,North,354,2.0,4.0,67,-99.99,,,-99.99,,2013-06-14 03:52:00,
2013-06-13 21:01:00,62.0,52.0,-100.00,North,350,2.0,4.0,69,-99.99,,,-99.99,,2013-06-14 04:01:00,
2013-06-13 21:12:00,62.0,52.0,-100.00,WSW,256,2.0,2.0,69,-99.99,,,-99.99,,2013-06-14 04:12:00,
2013-06-13 21:22:00,61.0,51.0,-100.00,NE,53,1.0,1.0,69,-99.99,,,-99.99,,2013-06-14 04:22:00,
2013-06-13 21:33:00,61.0,51.0,-100.00,NE,53,1.0,1.0,69,-99.99,,,-99.99,,2013-06-14 04:33:00,
2013-06-13 21:43:00,60.0,51.0,-100.00,North,-999,0.0,0.0,73,-99.99,,,-99.99,,2013-06-14 04:43:00,
2013-06-13 21:53:00,60.0,51.0,-100.00,North,-999,0.0,0.0,73,-99.99,,,-99.99,,2013-06-14 04:53:00,
2013-06-13 22:01:00,60.0,52.0,-100.00,North,11,0.0,2.0,74,-99.99,,,-99.99,,2013-06-14 05:01:00,
2013-06-13 22:11:00,60.0,52.0,-100.00,North,11,0.0,2.0,74,-99.99,,,-99.99,,2013-06-14 05:11:00,
2013-06-13 22:22:00,60.0,51.0,-100.00,NE,54,1.0,2.0,73,-99.99,,,-99.99,,2013-06-14 05:22:00,
2013-06-13 22:33:00,59.0,51.0,-100.00,NE,44,0.0,3.0,75,-99.99,,,-99.99,,2013-06-14 05:33:00,
2013-06-13 22:43:00,60.0,52.0,-100.00,ENE,71,2.0,3.0,74,-99.99,,,-99.99,,2013-06-14 05:43:00,
2013-06-13 22:52:00,60.0,52.0,-100.00,ENE,71,2.0,3.0,74,-99.99,,,-99.99,,2013-06-14 05:52:00,
2013-06-13 23:02:00,61.0,52.0,-100.00,NE,46,3.0,3.0,71,-99.99,,,-99.99,,2013-06-14 06:02:00,
2013-06-13 23:12:00,62.0,52.0,-100.00,ENE,60,1.0,2.0,69,-99.99,,,-99.99,,2013-06-14 06:12:00,
2013-06-13 23:22:00,63.0,52.0,-100.00,NNE,32,2.0,2.0,67,-99.99,,,-99.99,,2013-06-14 06:22:00,
2013-06-13 23:33:00,62.0,51.0,-100.00,NE,51,1.0,3.0,68,-99.99,,,-99.99,,2013-06-14 06:33:00,
2013-06-13 23:43:00,62.0,51.0,-100.00,ENE,59,2.0,3.0,68,-99.99,,,-99.99,,2013-06-14 06:43:00,
2013-06-13 23:52:00,62.0,51.0,-100.00,ENE,59,2.0,3.0,68,-99.99,,,-99.99,,2013-06-14 06:52:00,